Time,TemperatureF,DewpointF,PressureIn,WindDirection,WindDirectionDegrees,WindSpeedMPH,WindSpeedGustMPH,Humidity,HourlyPrecipIn,Conditions,Clouds,dailyrainin,SoftwareType,DateUTC
2013-11-21 00:12:00,58.0,55.0,29.84,WNW,296,1.0,5.0,89,0.01,,,0.02,,2013-11-21 08:12:00,
2013-11-21 00:21:00,58.0,55.0,29.84,WNW,282,1.0,4.0,90,0.01,,,0.02,,2013-11-21 08:21:00,
2013-11-21 00:42:00,58.0,55.0,29.83,WNW,288,2.0,5.0,89,0.00,,,0.02,,2013-11-21 08:42:00,
2013-11-21 00:52:00,58.0,54.0,29.83,WNW,291,3.0,5.0,88,0.00,,,0.02,,2013-11-21 08:52:00,
2013-11-21 01:22:00,58.0,55.0,29.82,WNW,297,1.0,4.0,90,0.05,,,0.07,,2013-11-21 09:22:00,
2013-11-21 01:43:00,58.0,55.0,29.82,NW,307,0.0,3.0,91,0.06,,,0.08,,2013-11-21 09:43:00,
2013-11-21 01:53:00,57.0,54.0,29.82,WNW,294,0.0,2.0,91,0.06,,,0.08,,2013-11-21 09:53:00,
2013-11-21 02:23:00,58.0,56.0,29.81,WNW,297,0.0,2.0,92,0.01,,,0.08,,2013-11-21 10:23:00,
2013-11-21 02:42:00,58.0,55.0,29.81,WNW,297,1.0,4.0,91,0.01,,,0.09,,2013-11-21 10:42:00,
2013-11-21 02:53:00,58.0,55.0,29.80,WSW,253,0.0,4.0,91,0.03,,,0.11,,2013-11-21 10:53:00,
2013-11-21 03:12:00,57.0,55.0,29.80,WNW,295,1.0,3.0,92,0.08,,,0.16,,2013-11-21 11:12:00,
2013-11-21 03:22:00,57.0,55.0,29.80,WNW,295,1.0,3.0,92,0.08,,,0.16,,2013-11-21 11:22:00,
2013-11-21 03:43:00,58.0,56.0,29.80,WNW,297,0.0,2.0,92,0.11,,,0.20,,2013-11-21 11:43:00,
2013-11-21 03:52:00,58.0,56.0,29.80,WNW,296,0.0,1.0,93,0.09,,,0.21,,2013-11-21 11:52:00,
2013-11-21 04:11:00,58.0,56.0,29.80,NW,308,0.0,3.0,93,0.06,,,0.22,,2013-11-21 12:11:00,
2013-11-21 04:21:00,57.0,55.0,29.79,NW,309,0.0,3.0,93,0.05,,,0.23,,2013-11-21 12:21:00,
2013-11-21 04:42:00,57.0,55.0,29.79,WNW,296,1.0,3.0,93,0.03,,,0.23,,2013-11-21 12:42:00,
2013-11-21 04:52:00,57.0,55.0,29.80,WNW,300,1.0,4.0,93,0.03,,,0.24,,2013-11-21 12:52:00,
2013-11-21 05:11:00,57.0,55.0,29.80,WNW,302,0.0,3.0,93,0.02,,,0.24,,2013-11-21 13:11:00,
2013-11-21 05:21:00,57.0,55.0,29.80,WNW,297,0.0,3.0,92,0.01,,,0.24,,2013-11-21 13:21:00,
2013-11-21 05:42:00,57.0,55.0,29.79,WNW,299,0.0,3.0,92,0.05,,,0.28,,2013-11-21 13:42:00,
2013-11-21 05:52:00,57.0,55.0,29.79,WNW,288,0.0,3.0,93,0.04,,,0.28,,2013-11-21 13:52:00,
2013-11-21 06:11:00,57.0,55.0,29.80,WNW,300,0.0,3.0,92,0.05,,,0.28,,2013-11-21 14:11:00,
2013-11-21 06:22:00,57.0,55.0,29.80,West,271,0.0,3.0,92,0.05,,,0.28,,2013-11-21 14:22:00,
2013-11-21 06:42:00,57.0,55.0,29.80,WNW,302,1.0,3.0,92,0.01,,,0.28,,2013-11-21 14:42:00,
2013-11-21 06:52:00,57.0,55.0,29.80,WNW,289,1.0,2.0,92,0.01,,,0.28,,2013-11-21 14:52:00,
2013-11-21 07:11:00,58.0,56.0,29.81,WNW,287,1.0,4.0,92,0.00,,,0.28,,2013-11-21 15:11:00,
2013-11-21 07:22:00,58.0,56.0,29.81,NW,316,1.0,4.0,92,0.00,,,0.28,,2013-11-21 15:22:00,
2013-11-21 07:43:00,58.0,56.0,29.81,West,274,0.0,1.0,92,0.11,,,0.40,,2013-11-21 15:43:00,
2013-11-21 07:53:00,58.0,56.0,29.82,West,274,0.0,1.0,93,0.19,,,0.48,,2013-11-21 15:53:00,
2013-11-21 08:13:00,58.0,56.0,29.82,West,274,0.0,2.0,93,0.20,,,0.49,,2013-11-21 16:13:00,
2013-11-21 08:23:00,58.0,56.0,29.82,West,275,0.0,1.0,93,0.27,,,0.56,,2013-11-21 16:23:00,
2013-11-21 08:42:00,58.0,56.0,29.82,West,274,0.0,1.0,94,0.15,,,0.56,,2013-11-21 16:42:00,
2013-11-21 08:53:00,58.0,56.0,29.83,West,274,0.0,0.0,94,0.09,,,0.56,,2013-11-21 16:53:00,
2013-11-21 09:22:00,59.0,57.0,29.83,West,274,0.0,0.0,94,0.01,,,0.56,,2013-11-21 17:22:00,
2013-11-21 09:42:00,59.0,57.0,29.83,West,274,0.0,0.0,94,0.02,,,0.57,,2013-11-21 17:42:00,
2013-11-21 09:52:00,59.0,57.0,29.83,West,274,0.0,0.0,94,0.02,,,0.59,,2013-11-21 17:52:00,
2013-11-21 10:21:00,60.0,58.0,29.83,West,281,0.0,0.0,94,0.02,,,0.59,,2013-11-21 18:21:00,
2013-11-21 10:52:00,60.0,58.0,29.83,West,281,0.0,0.0,93,0.00,,,0.59,,2013-11-21 18:52:00,
2013-11-21 11:22:00,60.0,58.0,29.83,West,281,0.0,0.0,94,0.00,,,0.59,,2013-11-21 19:22:00,
2013-11-21 11:52:00,60.0,57.0,29.81,NW,304,0.0,1.0,91,0.00,,,0.59,,2013-11-21 19:52:00,
2013-11-21 12:21:00,62.0,58.0,29.80,SW,222,0.0,3.0,86,0.00,,,0.59,,2013-11-21 20:21:00,
2013-11-21 12:42:00,64.0,58.0,29.80,SW,219,0.0,4.0,82,0.00,,,0.59,,2013-11-21 20:42:00,
2013-11-21 12:52:00,64.0,57.0,29.80,WSW,248,0.0,5.0,79,0.00,,,0.59,,2013-11-21 20:52:00,
2013-11-21 13:11:00,65.0,57.0,29.80,SSE,165,0.0,2.0,75,0.00,,,0.59,,2013-11-21 21:11:00,
2013-11-21 13:21:00,65.0,56.0,29.80,WSW,255,0.0,5.0,74,0.00,,,0.59,,2013-11-21 21:21:00,
2013-11-21 13:34:00,65.0,56.0,29.80,WSW,255,0.0,5.0,74,0.00,,,0.59,,2013-11-21 21:34:00,
2013-11-21 13:43:00,65.0,56.0,29.80,WSW,255,0.0,5.0,74,0.00,,,0.59,,2013-11-21 21:43:00,
2013-11-21 13:54:00,65.0,56.0,29.80,SSW,203,1.0,4.0,74,0.00,,,0.59,,2013-11-21 21:54:00,
2013-11-21 14:13:00,66.0,57.0,29.80,SW,217,0.0,4.0,73,0.00,,,0.59,,2013-11-21 22:13:00,
2013-11-21 14:23:00,67.0,56.0,29.80,ESE,121,2.0,7.0,69,0.00,,,0.59,,2013-11-21 22:23:00,
2013-11-21 14:42:00,66.0,56.0,29.79,South,191,1.0,2.0,69,0.00,,,0.59,,2013-11-21 22:42:00,
2013-11-21 14:53:00,66.0,56.0,29.80,WNW,297,1.0,6.0,69,0.00,,,0.59,,2013-11-21 22:53:00,
2013-11-21 15:12:00,66.0,54.0,29.80,SSW,208,0.0,3.0,66,0.00,,,0.59,,2013-11-21 23:12:00,
2013-11-21 15:22:00,66.0,54.0,29.80,West,271,0.0,7.0,66,0.00,,,0.59,,2013-11-21 23:22:00,
2013-11-21 15:53:00,64.0,54.0,29.80,South,176,1.0,4.0,71,0.00,,,0.59,,2013-11-21 23:53:00,
2013-11-21 16:11:00,64.0,55.0,29.80,South,179,1.0,5.0,72,0.00,,,0.59,,2013-11-22 00:11:00,
2013-11-21 16:22:00,63.0,55.0,29.81,ESE,106,0.0,4.0,75,0.00,,,0.59,,2013-11-22 00:22:00,
2013-11-21 16:42:00,62.0,55.0,29.81,ESE,107,0.0,2.0,77,0.00,,,0.59,,2013-11-22 00:42:00,
2013-11-21 16:52:00,61.0,54.0,29.82,East,97,0.0,5.0,79,0.00,,,0.59,,2013-11-22 00:52:00,
2013-11-21 17:12:00,61.0,55.0,29.82,WSW,249,2.0,5.0,81,0.00,,,0.59,,2013-11-22 01:12:00,
2013-11-21 17:22:00,60.0,54.0,29.82,WSW,247,0.0,2.0,82,0.00,,,0.59,,2013-11-22 01:22:00,
2013-11-21 17:42:00,60.0,54.0,29.83,WSW,245,0.0,3.0,82,0.00,,,0.59,,2013-11-22 01:42:00,
2013-11-21 17:52:00,59.0,54.0,29.83,WSW,241,1.0,3.0,82,0.00,,,0.59,,2013-11-22 01:52:00,
2013-11-21 18:11:00,59.0,53.0,29.83,South,191,0.0,3.0,80,0.00,,,0.59,,2013-11-22 02:11:00,
2013-11-21 18:21:00,59.0,53.0,29.83,South,191,0.0,2.0,80,0.00,,,0.59,,2013-11-22 02:21:00,
2013-11-21 18:42:00,59.0,53.0,29.83,West,267,0.0,3.0,80,0.00,,,0.59,,2013-11-22 02:42:00,
2013-11-21 18:53:00,59.0,53.0,29.84,WNW,283,0.0,1.0,80,0.00,,,0.59,,2013-11-22 02:53:00,
2013-11-21 19:11:00,59.0,53.0,29.84,WNW,283,0.0,1.0,80,0.00,,,0.59,,2013-11-22 03:11:00,
2013-11-21 19:21:00,59.0,52.0,29.84,WNW,284,0.0,2.0,79,0.00,,,0.59,,2013-11-22 03:21:00,
2013-11-21 19:33:00,59.0,52.0,29.84,WNW,284,0.0,2.0,79,0.00,,,0.59,,2013-11-22 03:33:00,
2013-11-21 19:43:00,59.0,52.0,29.84,WNW,284,0.0,2.0,79,0.00,,,0.59,,2013-11-22 03:43:00,
2013-11-21 19:53:00,58.0,52.0,29.84,WNW,283,0.0,0.0,79,0.00,,,0.57,,2013-11-22 03:53:00,
2013-11-21 20:13:00,58.0,52.0,29.84,WNW,283,0.0,0.0,81,0.00,,,0.57,,2013-11-22 04:13:00,
2013-11-21 20:23:00,58.0,53.0,29.84,WNW,283,0.0,0.0,82,0.00,,,0.57,,2013-11-22 04:23:00,
2013-11-21 20:33:00,58.0,53.0,29.84,WNW,283,0.0,0.0,82,0.00,,,0.57,,2013-11-22 04:33:00,
2013-11-21 20:43:00,58.0,53.0,29.84,WNW,283,0.0,0.0,82,0.00,,,0.57,,2013-11-22 04:43:00,
2013-11-21 20:52:00,58.0,53.0,29.85,WNW,283,0.0,2.0,82,0.00,,,0.57,,2013-11-22 04:52:00,
2013-11-21 21:22:00,58.0,52.0,29.84,WNW,284,0.0,0.0,81,0.00,,,0.57,,2013-11-22 05:22:00,
2013-11-21 21:43:00,58.0,53.0,29.84,WNW,283,0.0,0.0,82,0.00,,,0.57,,2013-11-22 05:43:00,
2013-11-21 21:52:00,57.0,52.0,29.85,WNW,283,0.0,0.0,84,0.00,,,0.57,,2013-11-22 05:52:00,
2013-11-21 22:21:00,56.0,52.0,29.84,WNW,283,0.0,0.0,86,0.00,,,0.57,,2013-11-22 06:21:00,
2013-11-21 22:42:00,55.0,51.0,29.84,WNW,283,0.0,0.0,87,0.00,,,0.57,,2013-11-22 06:42:00,
2013-11-21 22:52:00,54.0,50.0,29.85,WNW,284,0.0,0.0,87,0.00,,,0.57,,2013-11-22 06:52:00,
2013-11-21 23:12:00,54.0,50.0,29.85,WNW,283,0.0,0.0,87,0.00,,,0.57,,2013-11-22 07:12:00,
2013-11-21 23:21:00,54.0,50.0,29.84,WNW,284,0.0,0.0,87,0.00,,,0.57,,2013-11-22 07:21:00,
2013-11-21 23:41:00,53.0,49.0,29.84,WNW,283,0.0,1.0,86,0.00,,,0.57,,2013-11-22 07:41:00,
2013-11-21 23:52:00,53.0,49.0,29.84,WNW,283,0.0,0.0,86,0.00,,,0.57,,2013-11-22 07:52:00,